Impacts TAF Board
For situational awareness. Not to be used for flight planning purposes.
IDs:

KTOI - Troy Muni, AL, US

Issued at 1339 UTC 15 Oct 2018
Updated at 1432 UTC 15 Oct 2018
Potential Impact None Slight Moderate High
Time1421Z 15/15Z 15/16Z 15/17Z 15/18Z 15/19Z 15/20Z 15/21Z 15/22Z 15/23Z 16/00Z 16/01Z 16/02Z 16/03Z>>
Type OBS PRVL PRVL PRVL PRVL PRVL PRVL PRVL PRVL PRVL PRVL PRVL PRVL PRVL
VIS 10 >6 >6 >6 >6 >6 >6 >6 >6 >6 >6 >6 >6 >6
CIG 60 25 35 35 50 50 50 50 50 50 100 100 100 100
Cover BKN BKN BKN BKN BKN BKN BKN BKN BKN BKN BKN BKN BKN BKN
FltCat VFR MVFR VFR VFR VFR VFR VFR VFR VFR VFR VFR VFR VFR VFR
WX -- -- -- -- -- -- -- -- -- -- -- -- -- --
WDir 160 130 170 170 200 200 200 200 200 200 VRB VRB VRB VRB
WSpd 6 5 5 5 6 6 6 6 6 6 2 2 2 2
WGst -- -- -- -- -- -- -- -- -- -- -- -- -- --
Raw TAF
KTOI 151339Z 1514/1612 00000KT P6SM BKN008
  FM151430 13005KT P6SM BKN025
  FM151600 17005KT P6SM BKN035
  FM151800 20006KT P6SM BKN050
  FM160000 VRB02KT P6SM BKN100
  FM160900 33002KT 6SM BR OVC015


Raw METAR
KTOI 151421Z AUTO 16006KT 10SM SCT009 BKN060 23/21 A3013 RMK AO2 T02330211
KTOI 151353Z AUTO 17006KT 10SM OVC007 22/21 A3013 RMK AO2 SLP198 T02220206
KTOI 151306Z AUTO 00000KT 10SM BKN008 21/19 A3012 RMK AO2 T02060189
KTOI 151253Z AUTO 00000KT 10SM CLR 21/18 A3011 RMK AO2 SLP192 T02060183
KTOI 151219Z AUTO 00000KT 10SM SCT023 19/17 A3010 RMK AO2 T01940172
KTOI 151208Z AUTO 00000KT 10SM BKN023 19/17 A3010 RMK AO2 T01940172
KTOI 151153Z AUTO VRB03KT 10SM FEW022 19/17 A3010 RMK AO2 SLP188 T01890167 10200 20167 53006

METAR Board
Radar Display
Forecast Discussion
For situational awareness. Not to be used for flight planning purposes.